Time;durP1;ratioP1;P1;durP2;ratioP2;P2;SDS_P1;SDS_P2;PMS_P1;PMS_P2;Temp;Humidity;BMP_temperature;BMP_pressure;BME280_temperature;BME280_humidity;BME280_pressure;Samples;Min_cycle;Max_cycle;Signal;HPM_P1;HPM_P2
2022/11/28 00:01:43;;;;;;;;;6.50;6.00;;;;;14.64;72.77;100814.56;4992875;28;45363;-71
2022/11/28 00:04:09;;;;;;;;;6.50;5.25;;;;;14.62;72.56;100805.75;4992853;28;46387;-71
2022/11/28 00:06:40;;;;;;;;;8.25;5.75;;;;;14.59;72.34;100795.22;4992578;28;45422;-70
2022/11/28 00:09:07;;;;;;;;;5.00;5.00;;;;;14.59;73.08;100795.22;4992424;28;45595;-71
2022/11/28 00:11:33;;;;;;;;;6.25;6.25;;;;;14.63;73.16;100796.75;4993141;28;45479;-71
2022/11/28 00:13:58;;;;;;;;;5.00;5.00;;;;;14.65;72.76;100800.16;4992768;28;45462;-82
2022/11/28 00:16:24;;;;;;;;;6.00;4.00;;;;;14.61;72.62;100795.97;4994739;28;45827;-82
2022/11/28 00:18:52;;;;;;;;;5.50;5.50;;;;;14.71;72.69;100786.28;4996037;28;45603;-82
2022/11/28 00:21:18;;;;;;;;;7.25;5.25;;;;;14.78;72.53;100784.84;4996759;28;45621;-82
2022/11/28 00:23:46;;;;;;;;;6.75;5.75;;;;;14.77;73.13;100776.91;4996488;28;45557;-81
2022/11/28 00:26:15;;;;;;;;;5.75;5.75;;;;;14.81;73.02;100778.38;4996469;28;45390;-82
2022/11/28 00:28:40;;;;;;;;;8.00;5.75;;;;;14.77;72.86;100769.69;4996294;28;45509;-81
2022/11/28 00:31:11;;;;;;;;;5.75;5.00;;;;;14.71;71.36;100767.50;4980392;28;45428;-82
2022/11/28 00:33:36;;;;;;;;;5.75;5.75;;;;;14.77;72.40;100775.06;4996741;28;46215;-83
2022/11/28 00:36:03;;;;;;;;;7.25;7.25;;;;;14.84;72.42;100774.59;4996875;28;45468;-83
2022/11/28 00:38:29;;;;;;;;;6.25;6.25;;;;;14.47;73.57;100703.91;4997112;28;45495;-83
2022/11/28 00:41:16;;;;;;;;;8.25;8.25;;;;;14.84;72.51;100766.53;4996127;28;45384;-82
2022/11/28 00:43:43;;;;;;;;;7.75;5.75;;;;;14.86;73.24;100765.47;4995484;28;47502;-81
2022/11/28 00:46:09;;;;;;;;;8.25;8.00;;;;;14.83;71.89;100765.66;4995556;28;45414;-81
2022/11/28 00:48:35;;;;;;;;;7.75;6.00;;;;;14.78;72.50;100747.25;4995709;28;45430;-82
2022/11/28 00:51:08;;;;;;;;;5.50;5.00;;;;;14.84;72.82;100763.84;4995985;28;45502;-82
2022/11/28 00:53:33;;;;;;;;;5.00;5.00;;;;;14.61;72.84;100726.16;4995850;28;47557;-83
2022/11/28 00:55:58;;;;;;;;;9.00;6.25;;;;;14.87;72.88;100750.19;4995982;28;45503;-82
2022/11/28 00:58:24;;;;;;;;;8.50;7.50;;;;;14.85;72.95;100754.84;4995617;28;45538;-82
2022/11/28 01:00:49;;;;;;;;;9.00;7.50;;;;;14.71;73.89;100718.28;4995748;28;45437;-81
2022/11/28 01:03:14;;;;;;;;;10.00;8.00;;;;;15.00;72.85;100753.63;4994821;28;45443;-81
2022/11/28 01:05:42;;;;;;;;;8.00;7.25;;;;;14.67;72.52;100696.22;4993974;28;45910;-83
2022/11/28 01:08:07;;;;;;;;;8.25;5.75;;;;;14.88;71.00;100746.53;4995298;28;45612;-82
2022/11/28 01:10:33;;;;;;;;;11.25;10.00;;;;;14.89;71.98;100757.16;4977389;28;45838;-83
2022/11/28 01:12:58;;;;;;;;;5.50;5.50;;;;;14.86;72.76;100753.84;4995398;28;47158;-82
2022/11/28 01:15:24;;;;;;;;;9.00;9.00;;;;;14.92;71.11;100753.38;4995565;28;45435;-82
2022/11/28 01:17:49;;;;;;;;;7.25;7.25;;;;;14.83;72.90;100760.31;4995617;28;45834;-82
2022/11/28 01:20:14;;;;;;;;;9.25;7.25;;;;;14.87;73.66;100758.25;4995277;28;45446;-82
2022/11/28 01:22:40;;;;;;;;;9.75;9.50;;;;;14.90;73.65;100763.38;4994872;28;45785;-82
2022/11/28 01:25:05;;;;;;;;;9.50;7.25;;;;;14.85;72.99;100769.09;4995011;28;45395;-82
2022/11/28 01:27:31;;;;;;;;;10.00;9.00;;;;;14.82;73.25;100763.97;4995238;28;45442;-83
2022/11/28 01:29:56;;;;;;;;;7.00;7.00;;;;;14.88;71.70;100766.19;4994669;28;45408;-83
2022/11/28 01:32:21;;;;;;;;;7.00;7.00;;;;;14.88;73.10;100766.19;4995450;28;45451;-83
2022/11/28 01:34:47;;;;;;;;;9.00;9.00;;;;;14.58;73.46;100715.69;4995712;28;45520;-83
2022/11/28 01:37:12;;;;;;;;;11.50;9.50;;;;;14.68;72.22;100729.28;4978153;28;45548;-83
2022/11/28 01:39:37;;;;;;;;;7.75;6.25;;;;;14.19;72.84;100664.91;4994920;28;45439;-84
2022/11/28 01:42:03;;;;;;;;;8.50;8.00;;;;;14.87;74.01;100771.66;4997513;28;46228;-83
2022/11/28 01:44:28;;;;;;;;;8.25;8.00;;;;;14.94;74.44;100778.28;5003066;28;45391;-83
2022/11/28 01:46:54;;;;;;;;;7.75;7.75;;;;;14.99;74.03;100781.47;5002184;28;45470;-83
2022/11/28 01:49:29;;;;;;;;;5.50;5.50;;;;;14.93;73.84;100776.59;4995267;28;45367;-83
2022/11/28 01:52:00;;;;;;;;;6.50;5.75;;;;;14.95;73.88;100780.88;4977706;28;47249;-83
2022/11/28 01:54:26;;;;;;;;;10.00;9.50;;;;;14.96;73.99;100779.88;4994637;28;45482;-82
2022/11/28 01:56:58;;;;;;;;;8.25;7.75;;;;;14.93;73.94;100776.59;4995089;28;45454;-83
2022/11/28 01:59:29;;;;;;;;;6.25;6.25;;;;;14.97;73.94;100783.44;4995405;28;45586;-83
2022/11/28 02:01:54;;;;;;;;;8.00;6.75;;;;;14.94;73.24;100779.16;4994817;28;45947;-82
2022/11/28 02:04:21;;;;;;;;;7.25;7.25;;;;;14.99;74.15;100783.31;4994246;28;45489;-81
2022/11/28 02:06:46;;;;;;;;;8.50;8.50;;;;;14.96;74.00;100779.03;4994877;28;45406;-82
2022/11/28 02:09:14;;;;;;;;;6.50;5.25;;;;;14.96;74.48;100789.75;4994367;28;45399;-82
2022/11/28 02:11:57;;;;;;;;;10.25;9.25;;;;;15.00;74.28;100788.56;4994371;28;45415;-81
2022/11/28 02:14:47;;;;;;;;;11.75;11.25;;;;;14.93;73.38;100790.84;4994532;28;45619;-83
2022/11/28 02:17:40;;;;;;;;;11.00;11.00;;;;;15.07;75.24;100789.78;4995159;28;45431;-84
2022/11/28 02:20:26;;;;;;;;;11.25;11.00;;;;;15.12;74.33;100787.59;4995000;28;45367;-82
2022/11/28 02:23:22;;;;;;;;;9.25;9.25;;;;;15.07;74.33;100779.03;4994768;28;46500;-82
2022/11/28 02:26:24;;;;;;;;;9.25;9.25;;;;;15.06;74.92;100755.84;4994688;28;45446;-85
2022/11/28 02:29:11;;;;;;;;;6.25;6.25;;;;;15.06;72.75;100765.72;4995156;28;45479;-83
2022/11/28 02:31:55;;;;;;;;;9.50;9.00;;;;;15.11;73.98;100777.81;4995086;28;45497;-84
2022/11/28 02:34:36;;;;;;;;;11.00;9.25;;;;;14.56;75.85;100663.91;4995160;28;46448;-85
2022/11/28 02:37:21;;;;;;;;;6.25;6.25;;;;;15.16;74.80;100749.72;4994346;28;45519;-85
2022/11/28 02:39:59;;;;;;;;;10.25;9.00;;;;;15.30;73.81;100765.63;4994871;28;45531;-86
2022/11/28 02:42:46;;;;;;;;;9.00;9.00;;;;;15.02;73.40;100715.91;4994527;28;45447;-85
2022/11/28 02:45:35;;;;;;;;;9.50;9.50;;;;;15.33;73.37;100765.38;4994852;28;46097;-85
2022/11/28 02:48:04;;;;;;;;;12.00;11.00;;;;;15.37;74.06;100766.88;4994465;28;45427;-85
2022/11/28 02:50:38;;;;;;;;;10.50;10.50;;;;;15.26;73.09;100758.78;4993853;28;45541;-85
2022/11/28 02:53:08;;;;;;;;;10.75;10.75;;;;;15.21;73.41;100756.47;4993619;28;45394;-85
2022/11/28 02:55:37;;;;;;;;;10.75;10.50;;;;;14.86;73.95;100695.63;4994058;28;45747;-85
2022/11/28 02:58:03;;;;;;;;;8.75;7.75;;;;;15.18;74.68;100742.41;4993908;28;45466;-85
2022/11/28 03:00:31;;;;;;;;;11.00;9.75;;;;;15.23;74.94;100735.69;4976424;28;45519;-85
2022/11/28 03:03:09;;;;;;;;;11.75;10.50;;;;;15.29;74.92;100729.84;4993416;28;45561;-85
2022/11/28 03:05:46;;;;;;;;;10.00;10.00;;;;;15.29;75.40;100729.84;4993429;28;46029;-85
2022/11/28 03:08:11;;;;;;;;;6.00;6.00;;;;;15.28;73.39;100729.97;4993814;28;45391;-86
2022/11/28 03:11:01;;;;;;;;;9.50;7.25;;;;;15.23;73.33;100735.69;4976083;28;45453;-85
2022/11/28 03:14:01;;;;;;;;;11.25;11.25;;;;;15.22;74.54;100728.59;4994126;28;45409;-85
2022/11/28 03:16:37;;;;;;;;;9.25;7.50;;;;;15.21;73.99;100736.78;4894622;29;46138;-85
2022/11/28 03:19:17;;;;;;;;;9.50;9.50;;;;;15.12;73.89;100728.50;4894871;29;45527;-86
2022/11/28 03:21:55;;;;;;;;;11.25;11.00;;;;;14.98;74.21;100712.59;4894641;29;45482;-86
2022/11/28 03:24:26;;;;;;;;;5.00;5.00;;;;;15.21;74.09;100743.03;4894765;29;45544;-85
2022/11/28 03:27:07;;;;;;;;;9.00;9.00;;;;;15.18;73.46;100742.41;4894695;29;46578;-86
2022/11/28 03:29:40;;;;;;;;;11.75;11.00;;;;;15.17;73.40;100744.25;4894011;29;45441;-86
2022/11/28 03:32:11;;;;;;;;;10.00;10.00;;;;;15.16;74.38;100744.34;4894790;29;45528;-86
2022/11/28 03:34:43;;;;;;;;;14.00;12.25;;;;;15.31;74.76;100760.13;4894737;29;45537;-85
2022/11/28 03:37:19;;;;;;;;;10.25;9.50;;;;;15.38;75.14;100765.88;4894331;29;46194;-84
2022/11/28 03:39:50;;;;;;;;;17.25;14.25;;;;;15.42;74.83;100756.59;4893949;29;45413;-84
2022/11/28 03:42:20;;;;;;;;;16.75;15.25;;;;;15.41;74.30;100757.59;4894285;29;45504;-85
2022/11/28 03:45:00;;;;;;;;;23.25;20.00;;;;;15.39;73.56;100756.00;4894692;29;45537;-85
2022/11/28 03:47:32;;;;;;;;;16.50;16.50;;;;;15.38;72.97;100741.69;4895122;29;45487;-85
2022/11/28 03:50:04;;;;;;;;;15.75;14.75;;;;;15.38;73.70;100749.75;4895572;29;45593;-85
2022/11/28 03:52:37;;;;;;;;;13.00;13.00;;;;;15.34;74.20;100732.16;4912525;28;45439;-84
2022/11/28 03:55:20;;;;;;;;;8.75;8.75;;;;;15.35;73.35;100733.03;4981728;28;45613;-85
2022/11/28 03:58:37;;;;;;;;;13.00;11.75;;;;;15.38;74.88;100722.03;4978330;28;46466;-85
2022/11/28 04:01:13;;;;;;;;;12.25;12.00;;;;;15.42;74.55;100723.50;4937180;28;45514;-85
2022/11/28 04:03:53;;;;;;;;;7.00;7.00;;;;;15.43;74.52;100725.22;4936929;28;45491;-84
2022/11/28 04:06:25;;;;;;;;;11.75;11.25;;;;;15.45;73.82;100718.75;4936586;28;45568;-83
2022/11/28 04:09:02;;;;;;;;;6.25;6.25;;;;;15.45;73.38;100734.00;4933607;28;47255;-85
2022/11/28 04:11:37;;;;;;;;;15.50;12.25;;;;;15.49;74.72;100738.13;4937124;28;45406;-85
2022/11/28 04:14:19;;;;;;;;;14.25;12.25;;;;;15.47;73.90;100721.28;4936958;28;45445;-84
2022/11/28 04:16:50;;;;;;;;;9.25;9.25;;;;;15.46;73.94;100725.78;4917970;28;45513;-84
2022/11/28 04:19:40;;;;;;;;;15.25;15.25;;;;;15.54;73.56;100732.41;4926054;28;45437;-84
2022/11/28 04:22:27;;;;;;;;;14.25;13.25;;;;;15.52;74.33;100726.28;4917458;28;45376;-85
2022/11/28 04:25:08;;;;;;;;;10.00;10.00;;;;;14.96;73.06;100645.56;4922681;28;45577;-84
2022/11/28 04:27:37;;;;;;;;;14.50;13.25;;;;;15.50;73.67;100726.41;4917047;28;45554;-84
2022/11/28 04:30:06;;;;;;;;;14.50;12.75;;;;;15.13;73.68;100675.63;4955598;28;45536;-84
2022/11/28 04:32:36;;;;;;;;;14.00;13.50;;;;;15.47;72.88;100732.06;4949830;28;45512;-84
2022/11/28 04:35:10;;;;;;;;;16.25;14.00;;;;;15.39;73.24;100743.41;4935963;28;45496;-85
2022/11/28 04:37:38;;;;;;;;;12.25;12.25;;;;;15.39;73.32;100746.09;4996294;28;45441;-85
2022/11/28 04:40:08;;;;;;;;;16.50;16.50;;;;;15.41;72.89;100749.53;4986602;28;47134;-86
2022/11/28 04:42:46;;;;;;;;;12.00;11.50;;;;;15.42;73.06;100756.59;4977682;28;45301;-86
2022/11/28 04:45:35;;;;;;;;;13.00;12.00;;;;;15.29;72.86;100754.03;4978652;28;45332;-85
2022/11/28 04:48:01;;;;;;;;;3.50;2.75;;;;;15.14;71.89;100750.72;4985968;28;45419;-85
2022/11/28 04:50:34;;;;;;;;;13.00;10.50;;;;;15.19;73.61;100750.34;4985864;28;45348;-85
2022/11/28 04:53:06;;;;;;;;;12.75;10.50;;;;;15.21;73.87;100759.16;4978998;28;45511;-86
2022/11/28 04:55:51;;;;;;;;;15.50;11.25;;;;;15.28;73.48;100759.53;4977588;28;45707;-85
2022/11/28 04:58:30;;;;;;;;;11.25;9.50;;;;;15.27;74.49;100747.06;4977705;28;45451;-86
2022/11/28 05:00:57;;;;;;;;;12.50;12.50;;;;;15.20;74.07;100725.22;4986453;28;45719;-85
2022/11/28 05:03:27;;;;;;;;;11.75;11.00;;;;;15.25;73.53;100732.88;4978567;28;45457;-86
2022/11/28 05:05:52;;;;;;;;;10.50;9.50;;;;;15.27;74.04;100730.94;4975914;28;45501;-86
2022/11/28 05:08:18;;;;;;;;;14.25;13.00;;;;;15.28;74.11;100740.72;4977362;28;45388;-85
2022/11/28 05:10:44;;;;;;;;;9.00;9.00;;;;;15.22;73.18;100735.81;4977188;28;46213;-86
2022/11/28 05:13:10;;;;;;;;;9.50;9.50;;;;;15.22;73.91;100730.44;4979501;28;45439;-85
2022/11/28 05:15:35;;;;;;;;;11.50;11.50;;;;;15.20;74.72;100730.56;4987603;28;45396;-84
2022/11/28 05:18:00;;;;;;;;;12.00;11.25;;;;;15.20;72.87;100738.63;4993941;28;45450;-84
2022/11/28 05:20:26;;;;;;;;;10.75;9.75;;;;;15.04;74.13;100724.72;4985379;28;47076;-84
2022/11/28 05:22:52;;;;;;;;;10.25;8.75;;;;;15.16;74.39;100752.41;4976673;28;45325;-84
2022/11/28 05:25:17;;;;;;;;;10.00;9.00;;;;;15.18;73.92;100747.78;4977827;28;45277;-84
2022/11/28 05:27:43;;;;;;;;;14.00;11.75;;;;;15.17;74.12;100735.31;4987894;28;45436;-84
2022/11/28 05:30:09;;;;;;;;;13.00;12.00;;;;;15.23;74.26;100738.38;4996365;28;46068;-83
2022/11/28 05:32:35;;;;;;;;;20.50;19.00;;;;;14.84;74.00;100662.66;4996165;28;45385;-84
2022/11/28 05:35:01;;;;;;;;;25.75;23.25;;;;;14.93;73.33;100670.00;4996260;28;45426;-84
2022/11/28 05:37:27;;;;;;;;;20.00;19.25;;;;;15.31;73.82;100741.31;4989792;28;45355;-84
2022/11/28 05:39:52;;;;;;;;;18.75;17.00;;;;;15.30;73.84;100742.31;4983074;28;45643;-84
2022/11/28 05:42:19;;;;;;;;;11.00;11.00;;;;;14.87;73.24;100669.63;4976480;28;45468;-84
2022/11/28 05:44:44;;;;;;;;;20.50;15.50;;;;;15.30;73.52;100736.94;4976608;28;45432;-84
2022/11/28 05:47:09;;;;;;;;;13.75;12.75;;;;;15.38;74.02;100739.00;4976230;28;45528;-84
2022/11/28 05:49:35;;;;;;;;;13.00;11.50;;;;;15.26;73.11;100723.84;4979969;28;45794;-84
2022/11/28 05:52:00;;;;;;;;;10.75;9.25;;;;;15.20;71.64;100735.94;4995887;28;45397;-84
2022/11/28 05:54:25;;;;;;;;;10.25;9.50;;;;;15.17;73.65;100735.31;4993931;28;45485;-83
2022/11/28 05:56:51;;;;;;;;;9.75;9.75;;;;;15.18;73.65;100737.88;4985049;28;45372;-84
2022/11/28 05:59:16;;;;;;;;;11.00;11.00;;;;;15.21;73.23;100742.16;4976182;28;46366;-84
2022/11/28 06:01:42;;;;;;;;;13.50;11.75;;;;;15.08;73.34;100743.13;4965272;28;45410;-84
2022/11/28 06:04:07;;;;;;;;;9.75;8.50;;;;;15.02;74.10;100727.53;4989654;28;45997;-82
2022/11/28 06:06:34;;;;;;;;;13.50;10.00;;;;;15.07;73.31;100744.09;4964475;28;45322;-84
2022/11/28 06:08:59;;;;;;;;;9.75;7.50;;;;;14.78;73.61;100692.69;4984263;28;47516;-84
2022/11/28 06:11:27;;;;;;;;;11.25;11.25;;;;;15.12;73.28;100741.06;4977454;28;45456;-84
2022/11/28 06:13:52;;;;;;;;;12.75;11.75;;;;;15.13;74.04;100757.06;4975310;28;45488;-84
2022/11/28 06:16:24;;;;;;;;;11.75;11.75;;;;;15.18;74.22;100763.91;4975292;28;45631;-84
2022/11/28 06:18:59;;;;;;;;;11.25;10.00;;;;;14.91;73.87;100723.00;4976433;28;46286;-84
2022/11/28 06:21:26;;;;;;;;;12.00;10.50;;;;;15.16;73.97;100755.97;4980297;28;45395;-83
2022/11/28 06:23:52;;;;;;;;;10.50;9.75;;;;;15.16;73.44;100761.34;4991178;28;45427;-83
2022/11/28 06:26:19;;;;;;;;;11.50;10.00;;;;;15.10;73.16;100769.88;4995276;28;45515;-83
2022/11/28 06:28:45;;;;;;;;;11.75;10.75;;;;;14.97;72.64;100761.94;4989375;28;45378;-84
2022/11/28 06:31:12;;;;;;;;;15.50;13.00;;;;;14.95;73.08;100770.13;4982210;28;45802;-83
2022/11/28 06:33:37;;;;;;;;;15.75;13.25;;;;;14.97;74.01;100772.69;4981993;28;45439;-83
2022/11/28 06:36:04;;;;;;;;;9.00;9.00;;;;;14.83;73.62;100732.59;4975601;28;45404;-83
2022/11/28 06:38:31;;;;;;;;;11.00;9.00;;;;;14.93;72.54;100755.94;4994644;28;46506;-82
2022/11/28 06:40:58;;;;;;;;;14.50;11.75;;;;;14.94;73.72;100772.91;4977031;28;45592;-83
2022/11/28 06:43:23;;;;;;;;;9.75;8.50;;;;;15.04;73.82;100778.44;4995335;28;45563;-83
2022/11/28 06:45:49;;;;;;;;;11.25;11.25;;;;;14.92;73.35;100772.19;4977100;28;45459;-84
2022/11/28 06:48:14;;;;;;;;;10.00;10.00;;;;;15.03;73.97;100790.16;4993432;28;45715;-83
2022/11/28 06:50:39;;;;;;;;;12.75;11.00;;;;;15.02;73.67;100789.31;4994924;28;45723;-83
2022/11/28 06:53:05;;;;;;;;;14.50;13.50;;;;;14.94;72.49;100778.28;4995196;28;45464;-83
2022/11/28 06:55:31;;;;;;;;;10.25;10.00;;;;;14.93;73.64;100788.16;4994837;28;45462;-83
2022/11/28 06:57:56;;;;;;;;;12.00;10.50;;;;;14.91;73.53;100783.88;4995017;28;46264;-83
2022/11/28 07:00:21;;;;;;;;;15.00;13.00;;;;;14.93;72.94;100793.53;4994812;28;45518;-83
2022/11/28 07:02:47;;;;;;;;;15.50;13.00;;;;;14.76;73.28;100767.97;4995082;28;45378;-83
2022/11/28 07:05:15;;;;;;;;;16.50;12.50;;;;;14.89;73.71;100791.22;4957457;28;45493;-84
2022/11/28 07:07:40;;;;;;;;;14.25;11.00;;;;;14.86;73.18;100794.13;4973873;28;47470;-83
2022/11/28 07:10:06;;;;;;;;;10.50;9.00;;;;;14.61;73.24;100777.19;4975600;28;45461;-84
2022/11/28 07:12:32;;;;;;;;;12.50;9.75;;;;;14.84;74.16;100802.31;4975586;28;45620;-85
2022/11/28 07:14:57;;;;;;;;;12.50;12.50;;;;;14.87;73.96;100803.91;4975689;28;45446;-84
2022/11/28 07:17:22;;;;;;;;;11.00;10.00;;;;;14.90;73.98;100798.28;4975289;28;45787;-84
2022/11/28 07:19:47;;;;;;;;;10.00;10.00;;;;;14.93;73.76;100790.84;4974976;28;45647;-84
2022/11/28 07:22:13;;;;;;;;;9.75;9.75;;;;;14.93;73.79;100784.63;4975225;28;45410;-85
2022/11/28 07:24:38;;;;;;;;;13.00;11.75;;;;;14.94;73.53;100795.25;4990437;28;45515;-84
2022/11/28 07:27:03;;;;;;;;;15.00;15.00;;;;;14.88;73.04;100784.13;4974723;28;46621;-84
2022/11/28 07:29:34;;;;;;;;;15.00;13.75;;;;;14.96;72.38;100793.28;4973019;28;46168;-84
2022/11/28 07:32:00;;;;;;;;;13.00;11.00;;;;;14.80;72.86;100776.66;4975249;28;45407;-84
2022/11/28 07:34:26;;;;;;;;;14.00;10.00;;;;;14.86;72.79;100797.69;4974935;28;45546;-84
2022/11/28 07:36:51;;;;;;;;;12.75;11.75;;;;;14.77;73.25;100791.16;4963113;28;47188;-85
2022/11/28 07:39:17;;;;;;;;;20.00;14.25;;;;;14.49;73.30;100741.38;4974841;28;45422;-84
2022/11/28 07:41:42;;;;;;;;;15.75;14.00;;;;;14.89;72.42;100812.72;4974126;28;45852;-84
2022/11/28 07:44:09;;;;;;;;;10.75;10.75;;;;;14.82;72.49;100798.00;4975842;28;45368;-83
2022/11/28 07:46:34;;;;;;;;;9.50;9.50;;;;;14.86;72.71;100802.19;4975874;28;46107;-84
2022/11/28 07:49:00;;;;;;;;;11.75;11.50;;;;;14.90;73.70;100803.66;4993922;28;45802;-83
2022/11/28 07:51:28;;;;;;;;;11.50;11.50;;;;;14.96;72.53;100813.94;4980704;28;45418;-84
2022/11/28 07:53:54;;;;;;;;;13.00;13.00;;;;;14.92;73.21;100801.72;4976635;28;45418;-85
2022/11/28 07:56:23;;;;;;;;;17.75;13.75;;;;;14.83;72.83;100789.84;4975092;28;47274;-83
2022/11/28 07:58:49;;;;;;;;;14.25;12.00;;;;;14.97;73.11;100804.91;4975221;28;45687;-85
2022/11/28 08:01:18;;;;;;;;;17.75;15.00;;;;;15.00;73.20;100818.09;4975826;28;45749;-85
2022/11/28 08:03:44;;;;;;;;;14.00;13.00;;;;;15.00;72.86;100815.41;4974411;28;45675;-85
2022/11/28 08:06:10;;;;;;;;;11.75;10.00;;;;;14.97;72.83;100823.72;4989854;28;45568;-84
2022/11/28 08:08:36;;;;;;;;;12.00;10.75;;;;;14.97;72.51;100826.41;4994252;28;45558;-85
2022/11/28 08:11:04;;;;;;;;;13.00;10.75;;;;;14.90;73.44;100814.41;4967141;28;45560;-84
2022/11/28 08:13:29;;;;;;;;;7.50;7.00;;;;;14.94;72.61;100815.88;4990266;28;45411;-84
2022/11/28 08:15:55;;;;;;;;;6.75;6.00;;;;;14.96;71.63;100825.53;4984869;28;46192;-84
2022/11/28 08:18:20;;;;;;;;;4.00;4.00;;;;;14.82;70.30;100830.25;4992601;28;45757;-84
2022/11/28 08:20:46;;;;;;;;;6.25;6.25;;;;;14.89;71.98;100829.66;4995062;28;45441;-85
2022/11/28 08:23:11;;;;;;;;;9.50;7.25;;;;;14.92;70.88;100832.09;4994717;28;45363;-84
2022/11/28 08:25:36;;;;;;;;;9.00;8.25;;;;;15.04;71.12;100832.16;4994812;28;46299;-84
2022/11/28 08:28:02;;;;;;;;;8.00;8.00;;;;;15.07;71.56;100815.78;4960334;28;45749;-83
2022/11/28 08:30:27;;;;;;;;;11.25;10.25;;;;;14.99;71.84;100811.00;4976557;28;45549;-83
2022/11/28 08:32:52;;;;;;;;;10.50;7.25;;;;;15.10;71.31;100832.53;4976489;28;45498;-83
2022/11/28 08:35:18;;;;;;;;;11.00;7.00;;;;;14.82;71.62;100781.91;4993826;28;46341;-83
2022/11/28 08:37:44;;;;;;;;;11.25;10.25;;;;;15.08;70.01;100829.09;4994146;28;45364;-83
2022/11/28 08:40:09;;;;;;;;;12.50;8.75;;;;;15.10;70.87;100831.69;4996642;28;45498;-84
2022/11/28 08:42:35;;;;;;;;;11.25;10.75;;;;;15.11;70.94;100833.38;4997509;28;45546;-83
2022/11/28 08:45:00;;;;;;;;;8.50;7.00;;;;;15.05;70.37;100832.03;4997338;28;46289;-83
2022/11/28 08:47:26;;;;;;;;;7.25;6.25;;;;;15.11;70.88;100834.25;4997172;28;45418;-84
2022/11/28 08:49:51;;;;;;;;;8.75;6.75;;;;;15.10;71.20;100831.69;4997449;28;45453;-84
2022/11/28 08:52:17;;;;;;;;;8.00;6.00;;;;;14.99;70.41;100824.44;4979542;28;45429;-84
2022/11/28 08:54:42;;;;;;;;;6.00;6.00;;;;;15.06;71.47;100839.13;4963257;28;47128;-84
2022/11/28 08:57:08;;;;;;;;;9.50;5.75;;;;;15.09;71.50;100836.19;4997178;28;45471;-84
2022/11/28 08:59:34;;;;;;;;;5.75;5.75;;;;;15.11;70.89;100833.38;4997275;28;45473;-84
2022/11/28 09:01:59;;;;;;;;;8.25;6.00;;;;;15.07;71.40;100827.38;4997111;28;45440;-84
2022/11/28 09:04:24;;;;;;;;;8.00;7.25;;;;;15.12;71.02;100833.28;4996852;28;46322;-84
2022/11/28 09:06:50;;;;;;;;;9.00;9.00;;;;;15.16;71.39;100824.97;4997181;28;45673;-84
2022/11/28 09:09:15;;;;;;;;;12.75;10.75;;;;;15.12;68.99;100825.22;4996694;28;45359;-83
2022/11/28 09:11:41;;;;;;;;;7.75;6.25;;;;;15.10;70.08;100831.69;4996799;28;48838;-83
2022/11/28 09:14:07;;;;;;;;;8.25;7.00;;;;;15.14;70.43;100839.41;4996943;28;46130;-83
2022/11/28 09:16:32;;;;;;;;;10.25;5.50;;;;;15.00;69.44;100818.09;4996763;28;45375;-83
2022/11/28 09:18:58;;;;;;;;;5.50;4.75;;;;;14.82;71.37;100772.03;4996461;28;45369;-82
2022/11/28 09:21:24;;;;;;;;;5.00;4.25;;;;;15.20;70.30;100829.16;4978488;28;45541;-83
2022/11/28 09:23:53;;;;;;;;;7.25;6.75;;;;;15.17;70.19;100822.19;4996297;28;45390;-82
2022/11/28 09:26:20;;;;;;;;;7.50;7.50;;;;;15.21;71.22;100831.72;4996384;28;45466;-82
2022/11/28 09:28:46;;;;;;;;;7.50;5.75;;;;;14.73;68.54;100770.91;4995899;28;45500;-82
2022/11/28 09:31:13;;;;;;;;;6.00;6.00;;;;;15.24;70.05;100839.53;4995718;28;45374;-82
2022/11/28 09:33:38;;;;;;;;;4.00;4.00;;;;;15.00;70.81;100798.44;4996002;28;46539;-83
2022/11/28 09:36:10;;;;;;;;;9.50;6.75;;;;;15.23;70.76;100821.69;4996965;28;45393;-84
2022/11/28 09:38:36;;;;;;;;;4.50;3.00;;;;;15.21;69.06;100833.53;4996816;28;45434;-84
2022/11/28 09:41:03;;;;;;;;;7.50;6.00;;;;;15.27;70.85;100835.75;4996767;28;45474;-84
2022/11/28 09:43:36;;;;;;;;;6.75;5.25;;;;;15.33;68.84;100837.09;4996049;28;47297;-84
2022/11/28 09:46:06;;;;;;;;;6.75;5.00;;;;;15.21;69.88;100849.66;4997160;28;45483;-84
2022/11/28 09:48:40;;;;;;;;;4.00;4.00;;;;;15.23;70.60;100842.34;4996436;28;45502;-84
2022/11/28 09:51:18;;;;;;;;;12.25;9.00;;;;;15.39;70.00;100842.84;4995509;28;45225;-84
2022/11/28 09:53:55;;;;;;;;;12.00;9.75;;;;;15.41;70.14;100850.78;4996293;28;46682;-83
2022/11/28 09:56:21;;;;;;;;;7.50;5.75;;;;;15.40;71.65;100844.56;4995895;28;45443;-84
2022/11/28 09:58:56;;;;;;;;;13.75;8.50;;;;;15.42;69.86;100839.06;4978938;28;45462;-84
2022/11/28 10:01:41;;;;;;;;;9.75;8.00;;;;;15.42;68.85;100842.59;4998247;28;45363;-84
2022/11/28 10:04:22;;;;;;;;;6.50;5.25;;;;;15.53;69.90;100848.97;4997287;28;45442;-85
2022/11/28 10:07:10;;;;;;;;;5.00;5.00;;;;;15.66;69.47;100840.81;4997720;28;45462;-84
2022/11/28 10:09:47;;;;;;;;;7.25;5.75;;;;;15.72;69.12;100840.31;4982093;28;45549;-84
2022/11/28 10:12:35;;;;;;;;;6.25;4.00;;;;;15.68;69.14;100834.31;4997093;28;45538;-84
2022/11/28 10:15:19;;;;;;;;;5.75;4.50;;;;;15.85;69.47;100840.25;4996822;28;45727;-86
2022/11/28 10:18:12;;;;;;;;;6.00;5.75;;;;;16.06;69.23;100835.81;4996062;28;45478;-83
2022/11/28 10:20:42;;;;;;;;;5.00;4.00;;;;;16.33;68.80;100826.47;4987675;28;45520;-83
2022/11/28 10:23:18;;;;;;;;;5.50;5.00;;;;;16.56;67.88;100840.72;4978571;28;45495;-83
2022/11/28 10:26:01;;;;;;;;;7.00;5.00;;;;;16.63;67.44;100844.59;4994841;28;45387;-83
2022/11/28 10:28:33;;;;;;;;;9.00;7.00;;;;;16.79;66.21;100848.72;4990596;28;45457;-84
2022/11/28 10:31:07;;;;;;;;;5.00;4.75;;;;;17.02;65.52;100844.09;4991496;28;45463;-83
2022/11/28 10:33:43;;;;;;;;;6.75;5.25;;;;;17.11;64.95;100848.72;4995990;28;45428;-84
2022/11/28 10:36:17;;;;;;;;;6.00;5.00;;;;;16.98;61.54;100848.03;4995394;28;47583;-84
2022/11/28 10:38:43;;;;;;;;;5.75;3.75;;;;;17.20;64.02;100836.28;4995252;28;45460;-83
2022/11/28 10:41:19;;;;;;;;;5.00;5.00;;;;;17.19;64.29;100837.25;4994535;28;45962;-83
2022/11/28 10:44:00;;;;;;;;;5.25;3.50;;;;;17.31;63.44;100832.66;4995283;28;45346;-83
2022/11/28 10:46:49;;;;;;;;;6.25;4.75;;;;;17.16;61.06;100834.81;4995394;28;46122;-83
2022/11/28 10:49:48;;;;;;;;;2.50;2.50;;;;;17.25;62.42;100814.31;4996777;28;45430;-84
2022/11/28 10:52:22;;;;;;;;;5.25;4.75;;;;;17.69;60.79;100825.75;4995657;28;45432;-84
2022/11/28 10:55:06;;;;;;;;;5.25;4.00;;;;;17.71;61.39;100828.28;4995095;28;45486;-84
2022/11/28 10:57:55;;;;;;;;;2.00;2.00;;;;;17.87;60.08;100827.78;4979811;28;46218;-83
2022/11/28 11:00:21;;;;;;;;;5.00;4.00;;;;;17.81;60.85;100837.28;4994496;28;45527;-83
2022/11/28 11:02:46;;;;;;;;;6.00;2.25;;;;;17.76;58.03;100832.31;4988196;28;45523;-84
2022/11/28 11:05:17;;;;;;;;;3.75;3.75;;;;;18.01;60.10;100816.66;4993803;28;45458;-84
2022/11/28 11:07:50;;;;;;;;;4.75;3.25;;;;;17.99;58.32;100788.94;4994299;28;46457;-84
2022/11/28 11:10:18;;;;;;;;;3.50;2.00;;;;;18.10;60.32;100815.84;4994609;28;45338;-84
2022/11/28 11:12:44;;;;;;;;;3.50;3.50;;;;;17.84;59.55;100788.44;4993728;28;45459;-84
2022/11/28 11:15:44;;;;;;;;;4.75;3.25;;;;;18.35;60.22;100843.31;4996017;28;45496;-84
2022/11/28 11:18:31;;;;;;;;;7.50;4.00;;;;;18.30;57.98;100834.75;4899517;28;47526;-84
2022/11/28 11:21:19;;;;;;;;;3.00;3.00;;;;;18.53;59.22;100843.50;4915059;28;45409;-84
2022/11/28 11:23:46;;;;;;;;;4.50;2.50;;;;;18.24;60.50;100794.84;4914704;28;45543;-85
2022/11/28 11:26:36;;;;;;;;;2.00;2.00;;;;;18.49;58.49;100851.00;4915869;28;45499;-84
2022/11/28 11:29:04;;;;;;;;;2.25;1.50;;;;;18.04;57.95;100792.09;4914940;28;45519;-85
2022/11/28 11:31:42;;;;;;;;;4.50;3.00;;;;;18.01;57.51;100840.94;4914741;28;45565;-82
2022/11/28 11:34:17;;;;;;;;;3.00;2.00;;;;;18.06;59.79;100838.69;4916116;28;45545;-81
2022/11/28 11:36:43;;;;;;;;;3.00;2.00;;;;;18.11;57.65;100833.75;4914311;28;45589;-83